^^
Meteo Knjazevac Station Historical Data
Daily Summary for June 28, 2021 Units:  English    Metric   Both
Daily Weekly Monthly Yearly Custom
  High: Low: Average:
Temperature: 68.9 °F 55 °F 59.2 °F
Dew Point: 59.5 °F 52.2 °F 55.2 °F
Humidity: 93% 72% 87%
Wind Speed: 3mph 0mph 1.3mph
Wind Gust: 6mph - -
Wind- - SW
Pressure: 30.06 in 30.03 in -
Precipitation: 0.00 in    
Historical Graphs
 
 
Tabular Data for June 28, 2021
Time Temperature Dew Point Pressure Wind Wind Speed Wind Gust Humidity Rainfall Rate (Hourly) solar Conditions
00:00 60.6 °F 56.1 °F 30.05 in SW 3 mph 6 mph 85% 0.00 in 0 W/m2
00:10 60.4 °F 55.9 °F 30.06 in SW 3 mph 6 mph 85% 0.00 in 0 W/m2
00:20 60.3 °F 55.7 °F 30.06 in SW 3 mph 6 mph 85% 0.00 in 0 W/m2
00:30 60.3 °F 55.7 °F 30.06 in SSW 3 mph 6 mph 85% 0.00 in 0 W/m2
00:40 60.3 °F 55.7 °F 30.06 in SW 2 mph 5 mph 85% 0.00 in 0 W/m2
00:50 60.3 °F 55.7 °F 30.06 in SW 2 mph 4 mph 85% 0.00 in 0 W/m2
01:00 60.4 °F 55.9 °F 30.05 in South 2 mph 5 mph 85% 0.00 in 0 W/m2
01:10 60.4 °F 55.9 °F 30.05 in South 1 mph 5 mph 85% 0.00 in 0 W/m2
01:20 60.3 °F 55.7 °F 30.05 in SW 1 mph 3 mph 85% 0.00 in 0 W/m2
01:30 60.3 °F 55.7 °F 30.05 in SW 2 mph 3 mph 85% 0.00 in 0 W/m2
01:40 60.3 °F 55.7 °F 30.05 in SSW 1 mph 4 mph 85% 0.00 in 0 W/m2
01:50 60.3 °F 56.1 °F 30.05 in SSE 2 mph 4 mph 86% 0.00 in 0 W/m2
02:00 60.3 °F 56.1 °F 30.04 in SSE 2 mph 4 mph 86% 0.00 in 0 W/m2
02:10 60.3 °F 56.1 °F 30.04 in South 1 mph 3 mph 86% 0.00 in 0 W/m2
02:20 60.1 °F 55.9 °F 30.04 in WSW 1 mph 3 mph 86% 0.00 in 0 W/m2
02:30 59.9 °F 55.7 °F 30.04 in SW 2 mph 5 mph 86% 0.00 in 0 W/m2
02:40 59.7 °F 55.5 °F 30.04 in SW 2 mph 5 mph 86% 0.00 in 0 W/m2
02:50 59.5 °F 56 °F 30.05 in West 2 mph 3 mph 88% 0.00 in 0 W/m2
03:00 59.4 °F 55.8 °F 30.05 in WSW 2 mph 4 mph 88% 0.00 in 0 W/m2
03:10 59.2 °F 55.6 °F 30.05 in SW 2 mph 4 mph 88% 0.00 in 0 W/m2
03:20 59 °F 55.8 °F 30.05 in SSW 2 mph 5 mph 89% 0.00 in 0 W/m2
03:30 58.6 °F 55.4 °F 30.05 in SW 2 mph 5 mph 89% 0.00 in 0 W/m2
03:40 58.6 °F 55.4 °F 30.04 in SW 1 mph 3 mph 89% 0.00 in 0 W/m2
03:50 58.6 °F 55.4 °F 30.04 in SW 1 mph 3 mph 89% 0.00 in 0 W/m2
04:00 58.5 °F 55.2 °F 30.04 in WNW 1 mph 3 mph 89% 0.00 in 0 W/m2
04:10 58.3 °F 55.1 °F 30.04 in SSW 1 mph 3 mph 89% 0.00 in 0 W/m2
04:20 58.1 °F 54.9 °F 30.04 in Calm   1 mph 89% 0.00 in 0 W/m2
04:30 57.7 °F 54.5 °F 30.04 in Calm   2 mph 89% 0.00 in 0 W/m2
04:40 57.5 °F 54.3 °F 30.05 in Calm   2 mph 89% 0.00 in 0 W/m2
04:50 57.2 °F 54.3 °F 30.05 in Calm   2 mph 90% 0.00 in 0 W/m2
05:00 57 °F 54.1 °F 30.04 in Calm   2 mph 90% 0.00 in 0 W/m2
05:10 56.8 °F 53.9 °F 30.04 in Calm   2 mph 90% 0.00 in 0 W/m2
05:20 56.6 °F 53.7 °F 30.04 in WNW 1 mph 2 mph 90% 0.00 in 0 W/m2
05:30 56.1 °F 53.2 °F 30.05 in West 1 mph 2 mph 90% 0.00 in 0 W/m2
05:40 55.9 °F 53 °F 30.05 in Calm   2 mph 90% 0.00 in 0 W/m2
05:50 55.8 °F 52.9 °F 30.05 in Calm   2 mph 90% 0.00 in 3 W/m2
06:00 55.4 °F 52.5 °F 30.05 in WNW 1 mph 2 mph 90% 0.00 in 8 W/m2
06:10 55 °F 52.2 °F 30.05 in WNW 1 mph 2 mph 90% 0.00 in 14 W/m2
06:20 55.2 °F 52.6 °F 30.05 in Calm   2 mph 91% 0.00 in 23 W/m2
06:30 55.2 °F 52.3 °F 30.06 in West 1 mph 2 mph 90% 0.00 in 48 W/m2
06:40 55 °F 52.2 °F 30.06 in Calm   2 mph 90% 0.00 in 72 W/m2
06:50 55.2 °F 53.2 °F 30.06 in WNW 1 mph 3 mph 93% 0.00 in 87 W/m2
07:00 55.4 °F 53.4 °F 30.06 in NW 1 mph 2 mph 93% 0.00 in 122 W/m2
07:10 55.6 °F 53.6 °F 30.06 in Calm   3 mph 93% 0.00 in 158 W/m2
07:20 55.8 °F 53.8 °F 30.06 in Calm   2 mph 93% 0.00 in 193 W/m2
07:30 56.3 °F 54.3 °F 30.06 in Calm   2 mph 93% 0.00 in 233 W/m2
07:40 56.8 °F 54.8 °F 30.06 in Calm   2 mph 93% 0.00 in 268 W/m2
07:50 57.4 °F 54.8 °F 30.06 in West 1 mph 5 mph 91% 0.00 in 246 W/m2
08:00 57.9 °F 55 °F 30.06 in WNW 2 mph 5 mph 90% 0.00 in 316 W/m2
08:10 58.5 °F 55.2 °F 30.06 in North 1 mph 4 mph 89% 0.00 in 370 W/m2
08:20 59 °F 55.4 °F 30.05 in West 1 mph 5 mph 88% 0.00 in 391 W/m2
08:30 59.6 °F 55.4 °F 30.06 in South 2 mph 6 mph 86% 0.00 in 434 W/m2
08:40 60.7 °F 56.1 °F 30.06 in SSE 1 mph 5 mph 85% 0.00 in 464 W/m2
08:50 62.4 °F 57.2 °F 30.06 in WSW 2 mph 6 mph 83% 0.00 in 386 W/m2
09:00 63.3 °F 57.4 °F 30.04 in WSW 3 mph 6 mph 81% 0.00 in 355 W/m2
09:10 64.1 °F 57.4 °F 30.04 in SW 2 mph 5 mph 79% 0.00 in 475 W/m2
09:20 65.2 °F 58.1 °F 30.04 in WSW 1 mph 5 mph 78% 0.00 in 576 W/m2
09:30 66.2 °F 58 °F 30.04 in WSW 2 mph 6 mph 75% 0.00 in 584 W/m2
09:40 67.3 °F 58.7 °F 30.03 in WSW 2 mph 5 mph 74% 0.00 in 575 W/m2
09:50 67.8 °F 58.5 °F 30.03 in WSW 1 mph 5 mph 72% 0.00 in 599 W/m2
10:00 68.9 °F 59.5 °F 30.03 in WSW 2 mph 6 mph 72% 0.00 in 676 W/m2
Knjazevac, Serbia
Compliments of Weather Underground - 2 mb